sensor_id;sensor_type;location;lat;lon;timestamp;temperature;humidity
14521;DHT22;7347;50.844;4.490;2022-11-04T08:13:37;11.90;99.90
14521;DHT22;7347;50.844;4.490;2022-11-04T08:16:06;11.80;99.90
14521;DHT22;7347;50.844;4.490;2022-11-04T08:18:35;11.80;99.90
14521;DHT22;7347;50.844;4.490;2022-11-04T08:21:02;11.80;99.90
14521;DHT22;7347;50.844;4.490;2022-11-04T08:23:30;11.80;99.90
14521;DHT22;7347;50.844;4.490;2022-11-04T08:25:57;11.80;99.90
14521;DHT22;7347;50.844;4.490;2022-11-04T08:28:25;11.70;99.90
14521;DHT22;7347;50.844;4.490;2022-11-04T08:30:57;11.80;99.90
14521;DHT22;7347;50.844;4.490;2022-11-04T08:33:25;11.90;99.90
14521;DHT22;7347;50.844;4.490;2022-11-04T08:35:54;11.90;99.90
14521;DHT22;7347;50.844;4.490;2022-11-04T08:38:21;11.90;99.90
14521;DHT22;7347;50.844;4.490;2022-11-04T08:40:47;11.80;99.90
14521;DHT22;7347;50.844;4.490;2022-11-04T08:43:14;11.70;99.90
14521;DHT22;7347;50.844;4.490;2022-11-04T08:45:43;11.80;99.90
14521;DHT22;7347;50.844;4.490;2022-11-04T08:48:12;12.00;99.90
14521;DHT22;7347;50.844;4.490;2022-11-04T08:50:41;12.00;99.90
14521;DHT22;7347;50.844;4.490;2022-11-04T08:53:08;12.00;99.90
14521;DHT22;7347;50.844;4.490;2022-11-04T08:55:36;12.00;99.90
14521;DHT22;7347;50.844;4.490;2022-11-04T08:58:03;11.90;99.90
14521;DHT22;7347;50.844;4.490;2022-11-04T09:00:29;12.00;99.90
14521;DHT22;7347;50.844;4.490;2022-11-04T09:02:57;11.90;99.90
14521;DHT22;7347;50.844;4.490;2022-11-04T09:05:25;11.50;99.90
14521;DHT22;7347;50.844;4.490;2022-11-04T09:07:53;11.60;99.90
14521;DHT22;7347;50.844;4.490;2022-11-04T09:10:20;11.60;99.90
14521;DHT22;7347;50.844;4.490;2022-11-04T09:12:47;11.70;99.90
14521;DHT22;7347;50.844;4.490;2022-11-04T09:15:14;11.80;99.90
14521;DHT22;7347;50.844;4.490;2022-11-04T09:17:41;11.80;99.90
14521;DHT22;7347;50.844;4.490;2022-11-04T09:20:09;11.90;99.90
14521;DHT22;7347;50.844;4.490;2022-11-04T09:22:38;11.90;99.90
14521;DHT22;7347;50.844;4.490;2022-11-04T09:25:05;11.90;99.90
14521;DHT22;7347;50.844;4.490;2022-11-04T09:27:31;11.80;99.90
14521;DHT22;7347;50.844;4.490;2022-11-04T09:29:58;11.80;99.90
14521;DHT22;7347;50.844;4.490;2022-11-04T09:32:26;11.80;99.90
14521;DHT22;7347;50.844;4.490;2022-11-04T09:34:52;11.90;99.90
14521;DHT22;7347;50.844;4.490;2022-11-04T09:37:19;12.10;99.90
14521;DHT22;7347;50.844;4.490;2022-11-04T09:39:47;12.20;99.90
14521;DHT22;7347;50.844;4.490;2022-11-04T09:42:37;12.20;99.90
14521;DHT22;7347;50.844;4.490;2022-11-04T09:45:11;12.20;99.90
14521;DHT22;7347;50.844;4.490;2022-11-04T09:47:40;12.30;99.90
14521;DHT22;7347;50.844;4.490;2022-11-04T09:50:14;12.30;99.90
14521;DHT22;7347;50.844;4.490;2022-11-04T09:52:45;12.40;99.90
14521;DHT22;7347;50.844;4.490;2022-11-04T09:55:17;12.50;99.90
14521;DHT22;7347;50.844;4.490;2022-11-04T09:57:47;12.60;99.90
14521;DHT22;7347;50.844;4.490;2022-11-04T10:00:17;12.90;99.90
14521;DHT22;7347;50.844;4.490;2022-11-04T10:03:02;13.00;99.90
14521;DHT22;7347;50.844;4.490;2022-11-04T10:05:42;13.30;99.90
14521;DHT22;7347;50.844;4.490;2022-11-04T10:08:44;13.30;99.90
14521;DHT22;7347;50.844;4.490;2022-11-04T10:11:19;13.30;99.90
14521;DHT22;7347;50.844;4.490;2022-11-04T10:13:56;13.40;99.90
14521;DHT22;7347;50.844;4.490;2022-11-04T10:16:41;13.40;99.90
14521;DHT22;7347;50.844;4.490;2022-11-04T10:19:26;13.30;99.90
14521;DHT22;7347;50.844;4.490;2022-11-04T10:22:02;13.30;99.90
14521;DHT22;7347;50.844;4.490;2022-11-04T10:24:39;13.50;99.90
14521;DHT22;7347;50.844;4.490;2022-11-04T10:27:14;13.60;99.90
14521;DHT22;7347;50.844;4.490;2022-11-04T10:29:43;13.70;99.90
14521;DHT22;7347;50.844;4.490;2022-11-04T10:32:17;13.80;99.90
14521;DHT22;7347;50.844;4.490;2022-11-04T10:34:47;14.00;99.90
14521;DHT22;7347;50.844;4.490;2022-11-04T10:37:16;14.20;99.90
14521;DHT22;7347;50.844;4.490;2022-11-04T10:39:45;14.40;99.90
14521;DHT22;7347;50.844;4.490;2022-11-04T10:42:16;14.30;99.90
14521;DHT22;7347;50.844;4.490;2022-11-04T10:44:45;14.30;99.90
14521;DHT22;7347;50.844;4.490;2022-11-04T10:47:21;13.90;99.90
14521;DHT22;7347;50.844;4.490;2022-11-04T10:50:11;13.80;99.90
14521;DHT22;7347;50.844;4.490;2022-11-04T10:52:40;13.80;99.90
14521;DHT22;7347;50.844;4.490;2022-11-04T10:55:17;13.80;99.90
14521;DHT22;7347;50.844;4.490;2022-11-04T10:57:53;13.80;99.90
14521;DHT22;7347;50.844;4.490;2022-11-04T11:00:34;13.60;99.90
14521;DHT22;7347;50.844;4.490;2022-11-04T11:03:02;13.50;99.90
14521;DHT22;7347;50.844;4.490;2022-11-04T11:05:29;13.60;99.90
14521;DHT22;7347;50.844;4.490;2022-11-04T11:07:57;13.70;99.90
14521;DHT22;7347;50.844;4.490;2022-11-04T11:10:26;13.70;99.90
14521;DHT22;7347;50.844;4.490;2022-11-04T11:12:56;13.70;99.90
14521;DHT22;7347;50.844;4.490;2022-11-04T11:15:29;13.70;99.90
14521;DHT22;7347;50.844;4.490;2022-11-04T11:18:12;13.80;99.90
14521;DHT22;7347;50.844;4.490;2022-11-04T11:20:40;13.80;99.90
14521;DHT22;7347;50.844;4.490;2022-11-04T11:23:33;13.80;99.90
14521;DHT22;7347;50.844;4.490;2022-11-04T11:26:01;13.80;99.90
14521;DHT22;7347;50.844;4.490;2022-11-04T11:28:31;13.90;99.90
14521;DHT22;7347;50.844;4.490;2022-11-04T11:31:04;13.90;99.90
14521;DHT22;7347;50.844;4.490;2022-11-04T11:33:35;13.90;99.90
14521;DHT22;7347;50.844;4.490;2022-11-04T11:36:05;13.80;99.90
14521;DHT22;7347;50.844;4.490;2022-11-04T11:38:37;13.70;99.90
14521;DHT22;7347;50.844;4.490;2022-11-04T11:41:06;13.80;99.90
14521;DHT22;7347;50.844;4.490;2022-11-04T11:43:37;13.90;99.90
14521;DHT22;7347;50.844;4.490;2022-11-04T11:46:06;13.90;99.90
14521;DHT22;7347;50.844;4.490;2022-11-04T11:48:38;13.80;99.90
14521;DHT22;7347;50.844;4.490;2022-11-04T11:51:09;13.90;99.90
14521;DHT22;7347;50.844;4.490;2022-11-04T11:53:37;14.10;99.90
14521;DHT22;7347;50.844;4.490;2022-11-04T11:56:17;14.40;99.90
14521;DHT22;7347;50.844;4.490;2022-11-04T12:02:48;14.40;99.90
14521;DHT22;7347;50.844;4.490;2022-11-04T12:05:16;14.60;99.90
14521;DHT22;7347;50.844;4.490;2022-11-04T12:07:51;14.70;99.90
14521;DHT22;7347;50.844;4.490;2022-11-04T12:10:26;14.70;99.90
14521;DHT22;7347;50.844;4.490;2022-11-04T12:13:04;14.70;99.90
14521;DHT22;7347;50.844;4.490;2022-11-04T12:15:44;14.60;99.90
14521;DHT22;7347;50.844;4.490;2022-11-04T12:18:44;14.40;99.90
14521;DHT22;7347;50.844;4.490;2022-11-04T12:21:17;14.30;99.90
14521;DHT22;7347;50.844;4.490;2022-11-04T12:23:54;14.20;99.90
14521;DHT22;7347;50.844;4.490;2022-11-04T12:26:31;14.10;99.90
14521;DHT22;7347;50.844;4.490;2022-11-04T12:29:13;14.00;99.90
14521;DHT22;7347;50.844;4.490;2022-11-04T12:31:50;13.80;99.90
14521;DHT22;7347;50.844;4.490;2022-11-04T12:34:27;13.60;99.90
14521;DHT22;7347;50.844;4.490;2022-11-04T12:37:07;13.60;99.90
14521;DHT22;7347;50.844;4.490;2022-11-04T12:39:48;13.50;99.90
14521;DHT22;7347;50.844;4.490;2022-11-04T12:42:23;13.30;99.90
14521;DHT22;7347;50.844;4.490;2022-11-04T12:45:02;13.40;99.90
14521;DHT22;7347;50.844;4.490;2022-11-04T12:47:36;13.30;99.90
14521;DHT22;7347;50.844;4.490;2022-11-04T12:50:28;13.40;99.90
14521;DHT22;7347;50.844;4.490;2022-11-04T12:53:13;13.50;99.90
14521;DHT22;7347;50.844;4.490;2022-11-04T12:55:48;13.40;99.90
14521;DHT22;7347;50.844;4.490;2022-11-04T12:58:32;13.40;99.90
14521;DHT22;7347;50.844;4.490;2022-11-04T13:01:05;13.50;99.90
14521;DHT22;7347;50.844;4.490;2022-11-04T13:03:35;13.50;99.90
14521;DHT22;7347;50.844;4.490;2022-11-04T13:06:09;13.60;99.90
14521;DHT22;7347;50.844;4.490;2022-11-04T13:08:40;13.80;99.90
14521;DHT22;7347;50.844;4.490;2022-11-04T13:11:11;13.80;99.90
14521;DHT22;7347;50.844;4.490;2022-11-04T13:13:52;14.00;99.90
14521;DHT22;7347;50.844;4.490;2022-11-04T13:16:22;13.90;99.90
14521;DHT22;7347;50.844;4.490;2022-11-04T13:18:50;13.90;99.90
14521;DHT22;7347;50.844;4.490;2022-11-04T13:21:21;13.90;99.90
14521;DHT22;7347;50.844;4.490;2022-11-04T13:23:51;13.90;99.90
14521;DHT22;7347;50.844;4.490;2022-11-04T13:26:21;13.80;99.90
14521;DHT22;7347;50.844;4.490;2022-11-04T13:28:54;13.70;99.90
14521;DHT22;7347;50.844;4.490;2022-11-04T13:31:30;13.60;99.90
14521;DHT22;7347;50.844;4.490;2022-11-04T13:34:03;13.60;99.90
14521;DHT22;7347;50.844;4.490;2022-11-04T13:36:39;13.70;99.90
14521;DHT22;7347;50.844;4.490;2022-11-04T13:39:13;13.80;99.90
14521;DHT22;7347;50.844;4.490;2022-11-04T13:44:55;13.70;99.90
14521;DHT22;7347;50.844;4.490;2022-11-04T13:47:28;13.70;99.90
14521;DHT22;7347;50.844;4.490;2022-11-04T13:49:58;13.80;99.90
14521;DHT22;7347;50.844;4.490;2022-11-04T13:52:28;13.80;99.90
14521;DHT22;7347;50.844;4.490;2022-11-04T13:54:57;13.80;99.90
14521;DHT22;7347;50.844;4.490;2022-11-04T13:57:27;13.90;99.90
14521;DHT22;7347;50.844;4.490;2022-11-04T14:00:18;13.80;99.90
14521;DHT22;7347;50.844;4.490;2022-11-04T14:02:45;13.80;99.90
14521;DHT22;7347;50.844;4.490;2022-11-04T14:08:23;13.60;99.90
14521;DHT22;7347;50.844;4.490;2022-11-04T14:11:08;13.70;99.90
14521;DHT22;7347;50.844;4.490;2022-11-04T14:14:00;13.80;99.90
14521;DHT22;7347;50.844;4.490;2022-11-04T14:16:46;14.00;99.90
14521;DHT22;7347;50.844;4.490;2022-11-04T14:19:44;14.00;99.90
14521;DHT22;7347;50.844;4.490;2022-11-04T14:22:13;13.90;99.90
14521;DHT22;7347;50.844;4.490;2022-11-04T14:24:42;13.90;99.90
14521;DHT22;7347;50.844;4.490;2022-11-04T14:27:23;14.00;99.90
14521;DHT22;7347;50.844;4.490;2022-11-04T14:29:51;14.00;99.90
14521;DHT22;7347;50.844;4.490;2022-11-04T14:32:24;13.80;99.90
14521;DHT22;7347;50.844;4.490;2022-11-04T14:34:57;13.70;99.90
14521;DHT22;7347;50.844;4.490;2022-11-04T14:37:27;13.80;99.90
14521;DHT22;7347;50.844;4.490;2022-11-04T14:39:59;13.90;99.90
14521;DHT22;7347;50.844;4.490;2022-11-04T14:42:45;13.90;99.90
14521;DHT22;7347;50.844;4.490;2022-11-04T14:45:17;13.90;99.90
14521;DHT22;7347;50.844;4.490;2022-11-04T14:47:48;14.00;99.90
14521;DHT22;7347;50.844;4.490;2022-11-04T14:50:19;13.70;99.90
14521;DHT22;7347;50.844;4.490;2022-11-04T14:52:49;13.70;99.90
14521;DHT22;7347;50.844;4.490;2022-11-04T14:55:20;13.60;99.90
14521;DHT22;7347;50.844;4.490;2022-11-04T14:57:48;13.50;99.90
14521;DHT22;7347;50.844;4.490;2022-11-04T15:00:31;13.40;99.90
14521;DHT22;7347;50.844;4.490;2022-11-04T15:03:11;13.20;99.90
14521;DHT22;7347;50.844;4.490;2022-11-04T15:05:45;13.20;99.90
14521;DHT22;7347;50.844;4.490;2022-11-04T15:08:26;13.10;99.90
14521;DHT22;7347;50.844;4.490;2022-11-04T15:11:00;12.90;99.90
14521;DHT22;7347;50.844;4.490;2022-11-04T15:13:27;12.90;99.90
14521;DHT22;7347;50.844;4.490;2022-11-04T15:15:54;12.80;99.90
14521;DHT22;7347;50.844;4.490;2022-11-04T15:18:25;12.60;99.90
14521;DHT22;7347;50.844;4.490;2022-11-04T15:20:55;12.60;99.90
14521;DHT22;7347;50.844;4.490;2022-11-04T15:23:26;12.40;99.90
14521;DHT22;7347;50.844;4.490;2022-11-04T15:25:55;12.50;99.90
14521;DHT22;7347;50.844;4.490;2022-11-04T15:28:25;12.50;99.90
14521;DHT22;7347;50.844;4.490;2022-11-04T15:30:59;12.50;99.90
14521;DHT22;7347;50.844;4.490;2022-11-04T15:33:27;12.40;99.90
14521;DHT22;7347;50.844;4.490;2022-11-04T15:35:54;12.30;99.90
14521;DHT22;7347;50.844;4.490;2022-11-04T15:38:24;12.30;99.90
14521;DHT22;7347;50.844;4.490;2022-11-04T15:40:53;12.30;99.90
14521;DHT22;7347;50.844;4.490;2022-11-04T15:43:23;12.20;99.90
14521;DHT22;7347;50.844;4.490;2022-11-04T15:45:49;12.10;99.90
14521;DHT22;7347;50.844;4.490;2022-11-04T15:48:30;12.10;99.90
14521;DHT22;7347;50.844;4.490;2022-11-04T15:51:15;12.10;99.90
14521;DHT22;7347;50.844;4.490;2022-11-04T15:53:50;12.00;99.90
14521;DHT22;7347;50.844;4.490;2022-11-04T15:56:20;12.10;99.90
14521;DHT22;7347;50.844;4.490;2022-11-04T15:58:50;12.10;99.90
14521;DHT22;7347;50.844;4.490;2022-11-04T16:01:18;11.90;99.90
14521;DHT22;7347;50.844;4.490;2022-11-04T16:03:52;11.80;99.90
14521;DHT22;7347;50.844;4.490;2022-11-04T16:06:32;11.80;99.90
14521;DHT22;7347;50.844;4.490;2022-11-04T16:09:03;11.70;99.90
14521;DHT22;7347;50.844;4.490;2022-11-04T16:11:30;11.80;99.90
14521;DHT22;7347;50.844;4.490;2022-11-04T16:14:21;11.70;99.90
14521;DHT22;7347;50.844;4.490;2022-11-04T16:16:51;11.70;99.90
14521;DHT22;7347;50.844;4.490;2022-11-04T16:19:20;11.80;99.90
14521;DHT22;7347;50.844;4.490;2022-11-04T16:21:47;11.80;99.90
14521;DHT22;7347;50.844;4.490;2022-11-04T16:24:26;11.70;99.90
14521;DHT22;7347;50.844;4.490;2022-11-04T16:26:54;11.50;99.90
14521;DHT22;7347;50.844;4.490;2022-11-04T16:29:25;11.50;99.90
14521;DHT22;7347;50.844;4.490;2022-11-04T16:32:15;11.50;99.90
14521;DHT22;7347;50.844;4.490;2022-11-04T16:34:43;11.50;99.90
14521;DHT22;7347;50.844;4.490;2022-11-04T16:37:10;11.60;99.90
14521;DHT22;7347;50.844;4.490;2022-11-04T16:39:37;11.50;99.90
14521;DHT22;7347;50.844;4.490;2022-11-04T16:42:04;11.40;99.90
14521;DHT22;7347;50.844;4.490;2022-11-04T16:46:03;11.40;99.90
14521;DHT22;7347;50.844;4.490;2022-11-04T16:48:30;11.30;99.90
14521;DHT22;7347;50.844;4.490;2022-11-04T16:50:57;11.40;99.90
14521;DHT22;7347;50.844;4.490;2022-11-04T16:53:24;11.40;99.90
14521;DHT22;7347;50.844;4.490;2022-11-04T16:55:51;11.40;99.90
14521;DHT22;7347;50.844;4.490;2022-11-04T16:58:20;11.40;99.90
14521;DHT22;7347;50.844;4.490;2022-11-04T17:00:47;11.40;99.90
14521;DHT22;7347;50.844;4.490;2022-11-04T17:03:16;11.50;99.90
14521;DHT22;7347;50.844;4.490;2022-11-04T17:05:46;11.50;99.90
14521;DHT22;7347;50.844;4.490;2022-11-04T17:08:13;11.50;99.90
14521;DHT22;7347;50.844;4.490;2022-11-04T17:10:40;11.50;99.90
14521;DHT22;7347;50.844;4.490;2022-11-04T17:13:07;11.30;99.90
14521;DHT22;7347;50.844;4.490;2022-11-04T17:15:34;11.20;99.90
14521;DHT22;7347;50.844;4.490;2022-11-04T17:18:00;11.20;99.90
14521;DHT22;7347;50.844;4.490;2022-11-04T17:20:29;11.30;99.90
14521;DHT22;7347;50.844;4.490;2022-11-04T17:22:57;11.30;99.90
14521;DHT22;7347;50.844;4.490;2022-11-04T17:25:25;11.20;99.90
14521;DHT22;7347;50.844;4.490;2022-11-04T17:27:53;11.20;99.90
14521;DHT22;7347;50.844;4.490;2022-11-04T17:30:20;11.30;99.90
14521;DHT22;7347;50.844;4.490;2022-11-04T17:32:48;11.10;99.90
14521;DHT22;7347;50.844;4.490;2022-11-04T17:35:16;11.10;99.90
14521;DHT22;7347;50.844;4.490;2022-11-04T17:37:44;11.10;99.90
14521;DHT22;7347;50.844;4.490;2022-11-04T17:40:14;11.10;99.90
14521;DHT22;7347;50.844;4.490;2022-11-04T17:42:41;11.10;99.90
14521;DHT22;7347;50.844;4.490;2022-11-04T17:45:26;11.10;99.90
14521;DHT22;7347;50.844;4.490;2022-11-04T17:47:53;11.00;99.90
14521;DHT22;7347;50.844;4.490;2022-11-04T17:50:19;10.90;99.90
14521;DHT22;7347;50.844;4.490;2022-11-04T17:52:47;10.90;99.90
14521;DHT22;7347;50.844;4.490;2022-11-04T17:55:14;10.90;99.90
14521;DHT22;7347;50.844;4.490;2022-11-04T17:57:41;10.90;99.90
14521;DHT22;7347;50.844;4.490;2022-11-04T18:00:09;10.80;99.90
14521;DHT22;7347;50.844;4.490;2022-11-04T18:02:38;10.80;99.90
14521;DHT22;7347;50.844;4.490;2022-11-04T18:05:06;10.70;99.90
14521;DHT22;7347;50.844;4.490;2022-11-04T18:07:33;10.60;99.90
14521;DHT22;7347;50.844;4.490;2022-11-04T18:10:02;10.60;99.90
14521;DHT22;7347;50.844;4.490;2022-11-04T18:12:29;10.60;99.90
14521;DHT22;7347;50.844;4.490;2022-11-04T18:15:08;10.50;99.90
14521;DHT22;7347;50.844;4.490;2022-11-04T18:17:36;10.50;99.90
14521;DHT22;7347;50.844;4.490;2022-11-04T18:20:03;10.40;99.90
14521;DHT22;7347;50.844;4.490;2022-11-04T18:22:30;10.40;99.90
14521;DHT22;7347;50.844;4.490;2022-11-04T18:24:57;10.30;99.90
14521;DHT22;7347;50.844;4.490;2022-11-04T18:27:25;10.30;99.90
14521;DHT22;7347;50.844;4.490;2022-11-04T18:29:52;10.30;99.90
14521;DHT22;7347;50.844;4.490;2022-11-04T18:32:19;10.20;99.90
14521;DHT22;7347;50.844;4.490;2022-11-04T18:34:47;10.10;99.90
14521;DHT22;7347;50.844;4.490;2022-11-04T18:37:14;10.10;99.90
14521;DHT22;7347;50.844;4.490;2022-11-04T18:39:41;10.10;99.90
14521;DHT22;7347;50.844;4.490;2022-11-04T18:42:08;10.00;99.90
14521;DHT22;7347;50.844;4.490;2022-11-04T18:44:36;10.00;99.90
14521;DHT22;7347;50.844;4.490;2022-11-04T18:47:03;9.90;99.90
14521;DHT22;7347;50.844;4.490;2022-11-04T18:49:30;9.80;99.90
14521;DHT22;7347;50.844;4.490;2022-11-04T18:51:57;9.70;99.90
14521;DHT22;7347;50.844;4.490;2022-11-04T18:54:24;9.70;99.90
14521;DHT22;7347;50.844;4.490;2022-11-04T18:56:51;9.70;99.90
14521;DHT22;7347;50.844;4.490;2022-11-04T18:59:18;9.70;99.90
14521;DHT22;7347;50.844;4.490;2022-11-04T19:01:46;9.70;99.90
14521;DHT22;7347;50.844;4.490;2022-11-04T19:04:15;9.60;99.90
14521;DHT22;7347;50.844;4.490;2022-11-04T19:06:43;9.50;99.90
14521;DHT22;7347;50.844;4.490;2022-11-04T19:09:11;9.40;99.90
14521;DHT22;7347;50.844;4.490;2022-11-04T19:11:39;9.40;99.90
14521;DHT22;7347;50.844;4.490;2022-11-04T19:14:10;9.30;99.90
14521;DHT22;7347;50.844;4.490;2022-11-04T19:16:37;9.20;99.90
14521;DHT22;7347;50.844;4.490;2022-11-04T19:19:08;9.30;99.90
14521;DHT22;7347;50.844;4.490;2022-11-04T19:21:36;9.20;99.90
14521;DHT22;7347;50.844;4.490;2022-11-04T19:24:05;9.20;99.90
14521;DHT22;7347;50.844;4.490;2022-11-04T19:26:34;9.10;99.90
14521;DHT22;7347;50.844;4.490;2022-11-04T19:29:03;9.10;99.90
14521;DHT22;7347;50.844;4.490;2022-11-04T19:31:30;9.00;99.90
14521;DHT22;7347;50.844;4.490;2022-11-04T19:33:58;8.90;99.90
14521;DHT22;7347;50.844;4.490;2022-11-04T19:36:29;9.00;99.90
14521;DHT22;7347;50.844;4.490;2022-11-04T19:38:57;8.90;99.90
14521;DHT22;7347;50.844;4.490;2022-11-04T19:41:23;8.90;99.90
14521;DHT22;7347;50.844;4.490;2022-11-04T19:44:10;8.90;99.90
14521;DHT22;7347;50.844;4.490;2022-11-04T19:46:37;8.90;99.90
14521;DHT22;7347;50.844;4.490;2022-11-04T19:49:06;8.90;99.90
14521;DHT22;7347;50.844;4.490;2022-11-04T19:51:35;8.90;99.90
14521;DHT22;7347;50.844;4.490;2022-11-04T19:54:02;8.80;99.90
14521;DHT22;7347;50.844;4.490;2022-11-04T19:56:29;8.90;99.90
14521;DHT22;7347;50.844;4.490;2022-11-04T19:58:58;8.80;99.90
14521;DHT22;7347;50.844;4.490;2022-11-04T20:01:25;8.70;99.90
14521;DHT22;7347;50.844;4.490;2022-11-04T20:03:52;8.70;99.90
14521;DHT22;7347;50.844;4.490;2022-11-04T20:06:19;8.70;99.90
14521;DHT22;7347;50.844;4.490;2022-11-04T20:08:47;8.70;99.90
14521;DHT22;7347;50.844;4.490;2022-11-04T20:11:14;8.70;99.90
14521;DHT22;7347;50.844;4.490;2022-11-04T20:13:43;8.70;99.90
14521;DHT22;7347;50.844;4.490;2022-11-04T20:16:15;8.70;99.90
14521;DHT22;7347;50.844;4.490;2022-11-04T20:18:42;8.70;99.90
14521;DHT22;7347;50.844;4.490;2022-11-04T20:21:09;8.70;99.90
14521;DHT22;7347;50.844;4.490;2022-11-04T20:23:36;8.70;99.90
14521;DHT22;7347;50.844;4.490;2022-11-04T20:26:11;8.70;99.90
14521;DHT22;7347;50.844;4.490;2022-11-04T20:28:38;8.70;99.90
14521;DHT22;7347;50.844;4.490;2022-11-04T20:31:08;8.80;99.90
14521;DHT22;7347;50.844;4.490;2022-11-04T20:33:36;8.80;99.90
14521;DHT22;7347;50.844;4.490;2022-11-04T20:36:04;8.80;99.90
14521;DHT22;7347;50.844;4.490;2022-11-04T20:38:32;8.80;99.90
14521;DHT22;7347;50.844;4.490;2022-11-04T20:41:02;8.80;99.90
14521;DHT22;7347;50.844;4.490;2022-11-04T20:43:31;8.80;99.90
14521;DHT22;7347;50.844;4.490;2022-11-04T20:46:01;9.00;99.90
14521;DHT22;7347;50.844;4.490;2022-11-04T20:48:29;9.00;99.90
14521;DHT22;7347;50.844;4.490;2022-11-04T20:50:56;9.00;99.90
14521;DHT22;7347;50.844;4.490;2022-11-04T20:53:23;9.10;99.90
14521;DHT22;7347;50.844;4.490;2022-11-04T20:55:49;9.00;99.90
14521;DHT22;7347;50.844;4.490;2022-11-04T20:58:16;9.00;99.90
14521;DHT22;7347;50.844;4.490;2022-11-04T21:00:44;9.00;99.90
14521;DHT22;7347;50.844;4.490;2022-11-04T21:03:11;9.10;99.90
14521;DHT22;7347;50.844;4.490;2022-11-04T21:05:38;9.20;99.90
14521;DHT22;7347;50.844;4.490;2022-11-04T21:08:06;9.20;99.90
14521;DHT22;7347;50.844;4.490;2022-11-04T21:10:34;9.30;99.90
14521;DHT22;7347;50.844;4.490;2022-11-04T21:13:01;9.30;99.90
14521;DHT22;7347;50.844;4.490;2022-11-04T21:15:28;9.40;99.90
14521;DHT22;7347;50.844;4.490;2022-11-04T21:18:11;9.40;99.90
14521;DHT22;7347;50.844;4.490;2022-11-04T21:20:39;9.50;99.90
14521;DHT22;7347;50.844;4.490;2022-11-04T21:23:06;9.50;99.90
14521;DHT22;7347;50.844;4.490;2022-11-04T21:25:38;9.50;99.90
14521;DHT22;7347;50.844;4.490;2022-11-04T21:28:05;9.50;99.90
14521;DHT22;7347;50.844;4.490;2022-11-04T21:30:32;9.50;99.90
14521;DHT22;7347;50.844;4.490;2022-11-04T21:33:00;9.40;99.90
14521;DHT22;7347;50.844;4.490;2022-11-04T21:35:28;9.30;99.90
14521;DHT22;7347;50.844;4.490;2022-11-04T21:37:55;9.20;99.90
14521;DHT22;7347;50.844;4.490;2022-11-04T21:40:22;9.20;99.90
14521;DHT22;7347;50.844;4.490;2022-11-04T21:42:49;9.20;99.90
14521;DHT22;7347;50.844;4.490;2022-11-04T21:45:16;9.10;99.90
14521;DHT22;7347;50.844;4.490;2022-11-04T21:47:42;9.00;99.90
14521;DHT22;7347;50.844;4.490;2022-11-04T21:50:09;9.00;99.90
14521;DHT22;7347;50.844;4.490;2022-11-04T21:52:38;9.00;99.90
